Tiempo atmosférico en la estación meteorológica de Almansa, Albacete (715 m.)



Fecha
DESCASC
Temp. máxima en grados centígrados (hora)
DESCASC
Temp. mínima en grados centígrados (hora)
DESCASC
Temp. media en grados centígrados
DESCASC
Racha de viento máxima en m/sg (hora)
DESCASC
Velocidad máxima media en intervalos de 10 minutos(hora)
DESCASC
Precipitaciones diarias en mm
DESCASC
Precipitaciones de 00:00 a 06:00 en mm
DESCASC
Precipitaciones de 06:00 a 12:00 en mm
DESCASC
Precipitaciones de 12:00 a 18:00 en mm
DESCASC
Precipitaciones de 18:00 a 24:00 en mm
DESCASC
13-01-2021 11 (15:40) -2.3 (07:00) 4.4 4.44 (02:30) 2.22 (14:10) 0 0 0 0 0
12-01-2021 6.4 (15:00) -5.5 (06:50) 0.5 9.72 (15:30) 4.44 (16:40) -- -- -- -- 0
11-01-2021 6.2 (14:10) -2.3 (22:10) 1.9 4.72 (14:10) 1.67 (13:30) -- -- -- -- --
10-01-2021 2.6 (14:20) -2.2 (05:00) 0.2 2.78 (14:10) 1.11 (14:10) -- -- -- -- --
09-01-2021 2.4 (16:20) -0.6 (-00:0) 0.9 8.89 (06:40) 4.17 (04:30) 8.8 1.8 2.2 4 0.8
08-01-2021 1.5 (22:20) -0.2 (00:00) 0.6 10.28 (21:50) 3.89 (18:00) 11 0.2 1.4 6 3.4
07-01-2021 2.2 (00:00) 0 (00:00) 1.1 5.28 (13:10) 2.22 (21:50) 7.6 0.2 2.2 4.8 0.4
06-01-2021 7.8 (15:20) -8.6 (-00:0) -0.4 3.61 (14:50) 1.67 (14:40) 0 0 0 0 0
05-01-2021 7.5 (15:30) -5.9 (-00:0) 0.8 6.11 (03:30) 2.78 (03:30) 0 0 0 0 0
04-01-2021 6.1 (15:00) -2.2 (-00:0) 1.9 9.72 (13:20) 4.44 (14:30) 0 0 0 0 0
03-01-2021 6.4 (15:20) -1.5 (-00:0) 2.5 11.67 (13:40) 5 (16:00) 0 0 0 0 0
02-01-2021 5.1 (15:20) -1.9 (-00:0) 1.6 14.17 (16:00) 5.83 (11:30) 0 0 0 0 0
01-01-2021 6.8 (14:40) 0.8 (00:00) 3.8 12.22 (14:10) 5.83 (17:00) 2.4 2.4 0 0 0
31-12-2020 9.4 (14:50) -2.4 (-00:0) 3.5 10.28 (23:20) 5.28 (23:20) 0 0 0 0 0
30-12-2020 7.8 (14:50) -0.2 (00:00) 3.8 12.78 (05:40) 6.11 (05:40) 0 0 0 0 0
29-12-2020 7.5 (14:00) 1.5 (00:00) 4.5 11.94 (13:20) 6.39 (13:20) 1.4 0 0 1.4 0
28-12-2020 10.3 (15:10) 2.8 (00:00) 6.6 18.89 (04:40) 9.17 (05:00) 1.6 0 1.6 0 0
27-12-2020 11.5 (14:50) -3.7 (-00:0) 3.9 13.33 (18:40) 7.22 (18:40) 0 0 0 0 0
26-12-2020 8.9 (15:20) -2.9 (-00:0) 3 9.44 (02:50) 2.78 (01:00) 0 0 0 0 0
25-12-2020 8.3 (13:00) -0.5 (-00:0) 3.9 10.28 (15:00) 3.89 (11:20) 0 0 0 0 0
24-12-2020 14.1 (14:30) 3.5 (00:00) 8.8 6.11 (14:20) 2.5 (14:20) 0 0 0 0 0
23-12-2020 17.6 (14:40) 1.6 (00:00) 9.6 7.22 (14:40) 3.06 (13:50) 0 0 0 0 0
22-12-2020 16.7 (15:40) 0.9 (00:00) 8.8 3.33 (14:50) 1.67 (16:20) 0 0 0 0 0
21-12-2020 14.8 (15:20) 1.1 (00:00) 8 6.67 (16:40) 3.06 (14:40) 0.2 0 0.2 0 0
20-12-2020 13.3 (14:00) 4.5 (00:00) 8.9 6.94 (15:20) 3.06 (14:40) 0 0 0 0 0
19-12-2020 15.5 (14:50) 0.3 (00:00) 7.9 5.83 (12:20) 3.33 (12:20) 1.6 0 0 0 1.6
18-12-2020 15.8 (15:40) -0.7 (-00:0) 7.6 2.78 (14:40) 1.11 (14:10) 0 0 0 0 0
17-12-2020 14.6 (15:20) 1.6 (00:00) 8.1 2.78 (14:00) 1.11 (13:20) 0.2 0 0.2 0 0

Gráficas

Temp. máximas Temp. mínimas Temp. medias Precipitaciones Rachas de viento máximas Velocidades máximas media en intervalos de 10 minutos

Datos horarios

Fecha y hora oficial Temperatura (ºC) Velocidad del viento (km/h) Dirección del viento Racha (km/h) Dirección de racha Precipitación (mm) Presión (hPa) Tendencia (hPa) Humedad (%)
2021-01-15 23:00:00 1.3 0 Calma 14 Noroeste 0 -- -- 73
2021-01-15 22:00:00 2.5 6 Oeste 20 Noroeste 0 -- -- 69
2021-01-15 21:00:00 1.5 2 Sur 12 Oeste 0 -- -- 75
2021-01-15 20:00:00 2.3 4 Oeste 16 Noroeste 0 -- -- 73
2021-01-15 19:00:00 3.8 7 Oeste 21 Oeste 0 -- -- 68
2021-01-15 18:00:00 6.2 8 Oeste 23 Oeste 0 -- -- 56
2021-01-15 17:00:00 8.8 12 Oeste 24 Oeste 0 -- -- 51
2021-01-15 16:00:00 12.2 6 Noroeste 17 Noroeste 0 -- -- 39
2021-01-15 15:00:00 13 7 Noroeste 22 Noroeste 0 -- -- 34
2021-01-15 14:00:00 11.6 9 Norte 26 Noroeste 0 -- -- 40
2021-01-15 13:00:00 10.1 3 Noroeste 14 Noroeste 0 -- -- 52
2021-01-15 12:00:00 7.4 5 Noroeste 10 Noroeste 0 -- -- 59
2021-01-15 11:00:00 4.5 2 Noroeste 11 Oeste 0 -- -- 70
2021-01-15 10:00:00 1.6 3 Oeste 9 Oeste 0 -- -- 85
2021-01-15 09:00:00 -0.2 3 Oeste 13 Oeste 0 -- -- 89
2021-01-15 08:00:00 -1.2 2 Sudoeste 8 Oeste 0 -- -- 91
2021-01-15 07:00:00 -1 0 Calma 8 Oeste 0 -- -- 90
2021-01-15 06:00:00 -1.4 0 Calma 9 Sudoeste 0 -- -- 91
2021-01-15 05:00:00 -1.5 0 Calma 8 Oeste 0 -- -- 89
2021-01-15 04:00:00 -1.1 0 Calma 6 Sudoeste 0 -- -- 87
2021-01-15 03:00:00 0 0 Calma 8 Sudoeste 0 -- -- 85
2021-01-15 02:00:00 -0.9 0 Calma 8 Sudoeste 0 -- -- 83
2021-01-15 01:00:00 -0.6 2 Sudoeste 6 Sur 0 -- -- 78
2021-01-15 00:00:00 0.8 2 Sur 13 Oeste 0 -- -- 70
2021-01-14 23:00:00 0.8 4 Oeste 16 Oeste 0 -- -- 68
2021-01-14 22:00:00 1.5 5 Oeste 14 Oeste 0 -- -- 67
2021-01-14 21:00:00 2.3 6 Oeste 16 Oeste 0 -- -- 64
2021-01-14 20:00:00 3.3 7 Oeste 16 Oeste 0 -- -- 60
2021-01-14 19:00:00 3.9 3 Oeste 15 Oeste 0 -- -- 59
2021-01-14 18:00:00 5.3 7 Oeste 21 Noroeste 0 -- -- 53
2021-01-14 17:00:00 9.1 6 Oeste 21 Oeste 0 -- -- 43
2021-01-14 16:00:00 10.1 7 Noroeste 19 Oeste 0 -- -- 39
2021-01-14 15:00:00 10.2 6 Oeste 22 Oeste 0 -- -- 44
2021-01-14 14:00:00 10.9 6 Oeste 17 Oeste 0 -- -- 42
2021-01-14 13:00:00 10 6 Oeste 16 Oeste 0 -- -- 43
2021-01-14 12:00:00 7.8 8 Oeste 20 Oeste 0 -- -- 48
2021-01-14 11:00:00 5.1 8 Oeste 17 Oeste 0 -- -- 52
2021-01-14 10:00:00 2.8 6 Oeste 18 Oeste 0 -- -- 57
2021-01-14 09:00:00 -0.4 4 Oeste 14 Oeste 0 -- -- 67
2021-01-14 08:00:00 -1.5 3 Oeste 9 Sudoeste 0 -- -- 75
2021-01-14 07:00:00 -1.2 0 Calma 12 Oeste 0 -- -- 73
2021-01-14 06:00:00 -2 0 Calma 5 Oeste 0 -- -- 80
2021-01-14 05:00:00 -2 2 Sudoeste 4 Oeste 0 -- -- 79
2021-01-14 04:00:00 -0.5 0 Calma 9 Oeste 0 -- -- 73
2021-01-14 03:00:00 0.1 3 Oeste 12 Sudoeste 0 -- -- 71
2021-01-14 02:00:00 0.9 5 Oeste 15 Oeste 0 -- -- 67
2021-01-14 01:00:00 0.9 3 Oeste 14 Oeste 0 -- -- 67
2021-01-14 00:00:00 0 4 Oeste 12 Oeste 0 -- -- 73
2021-01-13 23:00:00 -0.5 3 Oeste 7 Oeste 0 -- -- 75
2021-01-13 22:00:00 -0.4 2 Oeste 6 Sudoeste 0 -- -- 76
2021-01-13 21:00:00 0.7 2 Sudoeste 10 Oeste 0 -- -- 71
2021-01-13 20:00:00 2 4 Oeste 16 Sudoeste 0 -- -- 66
2021-01-13 19:00:00 2.9 6 Oeste 16 Oeste 0 -- -- 63
2021-01-13 18:00:00 5.5 4 Sudoeste 10 Sudoeste 0 -- -- 59
2021-01-13 17:00:00 9.2 4 Oeste 11 Oeste 0 -- -- 50
2021-01-13 16:00:00 10.9 4 Norte 15 Oeste 0 -- -- 42
2021-01-13 15:00:00 10.4 4 Noroeste 15 Oeste 0 -- -- 46
2021-01-13 14:00:00 9.2 7 Oeste 16 Oeste 0 -- -- 46
2021-01-13 13:00:00 8.1 4 Noroeste 12 Noroeste 0 -- -- 45
2021-01-13 12:00:00 5.9 4 Oeste 12 Sudoeste 0 -- -- 50
2021-01-13 11:00:00 2.6 2 Oeste 16 Oeste 0 -- -- 60
2021-01-13 10:00:00 0.2 4 Oeste 16 Oeste 0 -- -- 67
2021-01-13 09:00:00 -1.7 5 Oeste 16 Oeste 0 -- -- 71
2021-01-13 08:00:00 -2.1 4 Sudoeste 15 Oeste 0 -- -- 73
2021-01-13 07:00:00 -2.3 0 Calma 14 Oeste 0 -- -- 74
2021-01-13 06:00:00 -1.5 6 Oeste 16 Sudoeste 0 -- -- 71
2021-01-13 05:00:00 -1.5 6 Oeste 13 Oeste 0 -- -- 71
2021-01-13 04:00:00 -1.7 3 Oeste 12 Oeste 0 -- -- 71
2021-01-13 03:00:00 -1.2 4 Oeste 16 Sudoeste 0 -- -- 68
2021-01-13 02:00:00 -1.4 4 Oeste 11 Oeste 0 -- -- 70
2021-01-13 01:00:00 -1.3 4 Oeste 14 Oeste 0 -- -- 71
2021-01-13 00:00:00 -1.1 6 Oeste 21 Oeste 0 -- -- 71
2021-01-12 23:00:00 -1 4 Oeste 17 Oeste 0 -- -- 70
2021-01-12 22:00:00 -1.1 6 Oeste 15 Noroeste 0 -- -- 73
2021-01-12 21:00:00 -1.1 4 Oeste 11 Oeste 0 -- -- 74
2021-01-12 20:00:00 -0.6 4 Oeste 15 Oeste 0 -- -- 71
2021-01-12 19:00:00 0.3 9 Oeste 26 Oeste 0 -- -- 66
2021-01-12 18:00:00 1.5 11 Oeste 28 Oeste 0 -- -- 60
2021-01-12 17:00:00 4 14 Oeste 30 Oeste 0 -- -- 50
2021-01-12 16:00:00 5.9 14 Oeste 35 Oeste 0 -- -- 41
2021-01-12 15:00:00 6.4 11 Oeste 25 Noroeste 0 -- -- 43
2021-01-12 14:00:00 5.2 12 Oeste 28 Oeste 0 -- -- 47
2021-01-12 13:00:00 3.9 10 Oeste 28 Oeste -- -- -- 57
2021-01-12 12:00:00 2.5 8 Oeste 22 Oeste -- -- -- 62
2021-01-12 11:00:00 0 8 Oeste 18 Noroeste -- -- -- 68
2021-01-12 10:00:00 -2.8 3 Oeste 13 Oeste -- -- -- 79
2021-01-12 09:00:00 -4.9 3 Oeste 8 Sudoeste -- -- -- 85
2021-01-12 08:00:00 -5.1 3 Oeste 11 Oeste -- -- -- 86
2021-01-12 07:00:00 -5.4 3 Oeste 6 Oeste -- -- -- 91
2021-01-12 06:00:00 -5.1 0 Calma 4 Oeste -- -- -- 92
2021-01-12 05:00:00 -4.8 0 Calma 4 Oeste -- -- -- 92
2021-01-12 04:00:00 -4.5 0 Calma 5 Oeste -- -- -- 92
2021-01-12 03:00:00 -4.5 0 Calma 4 Sudoeste -- -- -- 91
2021-01-12 02:00:00 -3.9 0 Calma 3 Sudoeste -- -- -- 90
2021-01-12 01:00:00 -3.1 0 Calma 6 Oeste -- -- -- 87
2021-01-12 00:00:00 -2.3 3 Oeste 12 Oeste -- -- -- 86
2021-01-11 23:00:00 -2 6 Oeste 16 Oeste -- -- -- 86
2021-01-11 22:00:00 -2.2 2 Sur 7 Sur -- -- -- 89
2021-01-11 21:00:00 -2 0 Calma 5 Oeste -- -- -- 89
2021-01-11 20:00:00 -1.2 0 Calma 3 Oeste -- -- -- 87
2021-01-11 19:00:00 0.3 0 Calma 5 Sudoeste -- -- -- 84
2021-01-11 18:00:00 2.7 0 Calma 12 Oeste -- -- -- 77
2021-01-11 17:00:00 4.9 4 Noroeste 13 Oeste -- -- -- 70
2021-01-11 16:00:00 5.9 4 Noroeste 13 Oeste -- -- -- 68
2021-01-11 15:00:00 5.7 6 Noroeste 17 Sudoeste -- -- -- 66
2021-01-11 14:00:00 6.1 5 Noroeste 14 Oeste -- -- -- 68
2021-01-11 13:00:00 4.8 3 Sudoeste 10 Noroeste 0 -- -- 75
2021-01-11 12:00:00 2.9 2 Noroeste 7 Oeste 0 -- -- 98
2021-01-11 11:00:00 1.6 3 Noroeste 9 Oeste 0 -- -- 97
2021-01-11 10:00:00 1.3 0 Calma 4 Norte 0 -- -- 98
2021-01-11 09:00:00 0.7 0 Calma 4 Noroeste 0 -- -- 98
2021-01-11 08:00:00 0.7 0 Calma 4 Oeste 0 -- -- 98
2021-01-11 07:00:00 0.6 0 Calma 4 Noroeste 0 -- -- 98
2021-01-11 06:00:00 0.8 0 Calma 6 Noroeste 0 -- -- 98
2021-01-11 05:00:00 1 2 Noroeste 5 Noroeste 0 -- -- 97
2021-01-11 04:00:00 1.3 0 Calma 4 Oeste 0 -- -- 98
2021-01-11 03:00:00 1.2 0 Calma 3 Sudoeste 0 -- -- 97
2021-01-11 02:00:00 1.4 0 Calma 5 Sudoeste 0 -- -- 97
2021-01-11 01:00:00 1.6 0 Calma 2 Este 0 -- -- 97
2021-01-11 00:00:00 1.6 0 Calma 2 Sudeste 0 -- -- 97
2021-01-10 23:00:00 1.8 0 Calma 3 Sur 0 -- -- 97
2021-01-10 22:00:00 1.9 0 Calma 2 Sur 0 -- -- 97
2021-01-10 21:00:00 2.1 0 Calma 3 Nordeste 0 -- -- 97
2021-01-10 20:00:00 2 0 Calma 0 Calma 0 -- -- 97
2021-01-10 19:00:00 2.1 0 Calma 2 Sudoeste 0 -- -- 97
2021-01-10 18:00:00 2.2 0 Calma 4 Norte 0 -- -- 97
2021-01-10 17:00:00 2.4 0 Calma 4 Este 0.2 -- -- 97
2021-01-10 16:00:00 2.4 0 Calma 8 Sudeste 0.4 -- -- 97
2021-01-10 15:00:00 2.5 3 Este 10 Este 0.2 -- -- 97
2021-01-10 14:00:00 2.2 2 Nordeste 5 Nordeste 0.4 -- -- 98
2021-01-10 13:00:00 1.4 0 Calma 5 Nordeste 1.4 -- -- 98
2021-01-10 12:00:00 0.7 0 Calma 0 Calma 0.6 -- -- 98
2021-01-10 11:00:00 -0.1 0 Calma -- -- 0 -- -- 98
2021-01-10 10:00:00 -0.4 0 Calma -- -- 0 -- -- 98
2021-01-10 09:00:00 -1 0 Calma -- -- 0 -- -- 97
2021-01-10 08:00:00 -1.3 0 Calma -- -- 0 -- -- 97
2021-01-10 07:00:00 -1.7 0 Calma -- -- 0 -- -- 97
2021-01-10 06:00:00 -2.2 0 Calma -- -- 0 -- -- 97
2021-01-10 05:00:00 -2.2 0 Calma -- -- 0 -- -- 97
2021-01-10 04:00:00 -1.4 0 Calma -- -- 0 -- -- 97
2021-01-10 03:00:00 -0.6 0 Calma -- -- 0 -- -- 97
2021-01-10 02:00:00 -1.2 0 Calma -- -- 0 -- -- 97
2021-01-10 01:00:00 -1.1 0 Calma -- -- 0 -- -- 97
2021-01-10 00:00:00 -0.6 0 Calma 5 Sudoeste 0 -- -- 97
2021-01-09 23:00:00 0 2 Sur 5 Sudoeste 0 -- -- 96
2021-01-09 22:00:00 1 0 Calma 4 Oeste 0 -- -- 97
2021-01-09 21:00:00 1.5 3 Oeste 4 Oeste 0.2 -- -- 97
2021-01-09 20:00:00 2.1 0 Calma 8 Noroeste 0.2 -- -- 97
2021-01-09 19:00:00 2 0 Calma 4 Noroeste 0.4 -- -- 97
2021-01-09 18:00:00 2.3 0 Calma 2 Noroeste 0.2 -- -- 97
2021-01-09 17:00:00 2.4 0 Calma 5 Este 0.4 -- -- 97
2021-01-09 16:00:00 2.2 3 Este 10 Sudeste 1 -- -- 97
2021-01-09 15:00:00 1.7 2 Sudeste 10 Sudeste 0.8 -- -- 97
2021-01-09 14:00:00 1.2 2 Sudeste 6 Sudeste 0.8 -- -- 97
2021-01-09 13:00:00 0.6 3 Este 10 Sudeste 0.8 -- -- 97
2021-01-09 12:00:00 0.3 2 Este 12 Este 0.8 -- -- 97
2021-01-09 11:00:00 0 0 Calma 6 Este 0.6 -- -- 97
2021-01-09 10:00:00 -0.1 0 Calma -- -- 0.2 -- -- 97
2021-01-09 09:00:00 -0.1 0 Calma -- -- 0.2 -- -- 96
2021-01-09 08:00:00 -0.2 0 Calma 22 Este 0.2 -- -- 96
2021-01-09 07:00:00 -0.1 10 Este 32 Este 0.2 -- -- 96
2021-01-09 06:00:00 0 10 Este 29 Nordeste 0.6 -- -- 97
2021-01-09 05:00:00 0.2 10 Este 30 Nordeste 0.4 -- -- 96
2021-01-09 04:00:00 0.3 13 Este 27 Este 0.2 -- -- 97
2021-01-09 03:00:00 0.3 9 Este 26 Nordeste 0.2 -- -- 97
2021-01-09 02:00:00 0.3 9 Este 27 Este 0.4 -- -- 97
2021-01-09 01:00:00 0.6 7 Este 27 Este 0 -- -- 97
2021-01-09 00:00:00 0.6 10 Este 31 Este 0.4 -- -- 97
2021-01-08 23:00:00 0.8 7 Este 26 Este 0.6 -- -- 97
2021-01-08 22:00:00 1.4 9 Este 37 Sudeste 0.6 -- -- 97
2021-01-08 21:00:00 1.1 8 Este 25 Este 0.4 -- -- 97
2021-01-08 20:00:00 1.1 9 Este 33 Este 0.8 -- -- 97
2021-01-08 19:00:00 1.2 10 Este 31 Nordeste 0.6 -- -- 97
2021-01-08 18:00:00 1.1 14 Este 30 Este 0.6 -- -- 97
2021-01-08 17:00:00 1 9 Este 26 Este 0.8 -- -- 97
2021-01-08 16:00:00 0.9 7 Este 24 Nordeste 0.8 -- -- 97
2021-01-08 15:00:00 0.4 6 Este 17 Nordeste 1 -- -- 97
2021-01-08 14:00:00 0.8 8 Este 21 Este 1.4 -- -- 96
2021-01-08 13:00:00 0.8 4 Este 13 Nordeste 1.4 -- -- 96
2021-01-08 12:00:00 0.6 2 Este 11 Sudeste 1.2 -- -- 97
2021-01-08 11:00:00 0.6 4 Este 17 Este 0.2 -- -- 97
2021-01-08 10:00:00 0.3 0 Calma 0 Calma 0 -- -- 97
2021-01-08 09:00:00 0 0 Calma -- -- 0 -- -- 97
2021-01-08 08:00:00 0 0 Calma -- -- 0 -- -- 97
2021-01-08 07:00:00 0.1 0 Calma -- -- 0 -- -- 97
2021-01-08 06:00:00 0 0 Calma -- -- 0.2 -- -- 97
2021-01-08 05:00:00 -0.2 0 Calma -- -- 0 -- -- 97
2021-01-08 04:00:00 -0.2 0 Calma -- -- 0 -- -- 97
2021-01-08 03:00:00 -0.2 0 Calma -- -- 0 -- -- 97
2021-01-08 02:00:00 -0.2 0 Calma 8 Este 0 -- -- 96
2021-01-08 01:00:00 -0.1 2 Este 9 Nordeste 0 -- -- 96
2021-01-08 00:00:00 0 5 Este 18 Este 0 -- -- 96
2021-01-07 23:00:00 0.1 4 Este 14 Nordeste 0 -- -- 96
2021-01-07 22:00:00 0.3 5 Este 19 Nordeste 0 -- -- 96
2021-01-07 21:00:00 0.4 2 Nordeste 8 Nordeste 0.2 -- -- 96
2021-01-07 20:00:00 0.4 2 Nordeste 9 Nordeste 0 -- -- 96
2021-01-07 19:00:00 0.4 3 Nordeste 13 Nordeste 0.2 -- -- 96
2021-01-07 18:00:00 0.7 2 Nordeste 4 Este 0.2 -- -- 96
2021-01-07 17:00:00 0.5 0 Calma 7 Este 0.6 -- -- 95
2021-01-07 16:00:00 0.7 0 Calma 11 Nordeste 0.4 -- -- 95
2021-01-07 15:00:00 1 4 Este 13 Nordeste 1 -- -- 95
2021-01-07 14:00:00 1.2 5 Este 19 Nordeste 1.2 -- -- 95
2021-01-07 13:00:00 1.7 8 Este 16 Nordeste 1.4 -- -- 95
2021-01-07 12:00:00 1.5 5 Este 17 Nordeste 1.2 -- -- 96
2021-01-07 11:00:00 1.1 6 Este 14 Este 0.6 -- -- 96
2021-01-07 10:00:00 0.6 2 Este 7 Este 0.2 -- -- 96
2021-01-07 09:00:00 0.3 0 Calma 0 Calma 0 -- -- 96
2021-01-07 08:00:00 0.3 0 Calma -- -- 0 -- -- 95
2021-01-07 07:00:00 0.2 0 Calma -- -- 0.2 -- -- 95
2021-01-07 06:00:00 0.2 0 Calma -- -- 0 -- -- 94
2021-01-07 05:00:00 0.2 0 Calma -- -- 0 -- -- 94
2021-01-07 04:00:00 0.2 0 Calma 5 Este 0 -- -- 94
2021-01-07 03:00:00 0.4 0 Calma 4 Sudeste 0 -- -- 92
2021-01-07 02:00:00 0.7 0 Calma 4 Nordeste 0 -- -- 90
2021-01-07 01:00:00 1.5 2 Este 14 Este 0.2 -- -- 87
2021-01-07 00:00:00 2.2 3 Este 11 Sudeste 0 -- -- 79
2021-01-06 23:00:00 2 2 Este 11 Este 0 -- -- 77
2021-01-06 22:00:00 2 0 Calma 8 Este 0 -- -- 71
2021-01-06 21:00:00 2.1 3 Sudeste 12 Este 0 -- -- 68
2021-01-06 20:00:00 2.3 3 Este 8 Sudeste 0 -- -- 63
2021-01-06 19:00:00 3.1 2 Sudeste 11 Este 0 -- -- 59
2021-01-06 18:00:00 4.6 3 Este 9 Sur 0 -- -- 51
2021-01-06 17:00:00 6.4 0 Calma 13 Este 0 -- -- 38
2021-01-06 16:00:00 7.2 3 Este 13 Nordeste 0 -- -- 36
2021-01-06 15:00:00 7.4 5 Nordeste 13 Este 0 -- -- 36
2021-01-06 14:00:00 6 4 Nordeste 10 Este 0 -- -- 45
2021-01-06 13:00:00 5 3 Nordeste 10 Nordeste 0 -- -- 54
2021-01-06 12:00:00 2.1 0 Calma 8 Nordeste 0 -- -- 68
2021-01-06 11:00:00 -0.8 0 Calma 4 Sudoeste 0 -- -- 83
2021-01-06 10:00:00 -6 0 Calma 3 Sudoeste 0 -- -- 94
2021-01-06 09:00:00 -8.4 0 Calma 3 Sudoeste 0 -- -- 89
2021-01-06 08:00:00 -8 0 Calma 5 Sur 0 -- -- 89
2021-01-06 07:00:00 -8.4 0 Calma 3 Oeste 0 -- -- 88
2021-01-06 06:00:00 -8.1 0 Calma 4 Sudoeste 0 -- -- 89
2021-01-06 05:00:00 -8.6 0 Calma 4 Oeste 0 -- -- 88
2021-01-06 04:00:00 -8.4 0 Calma 3 Sudoeste 0 -- -- 87
2021-01-06 03:00:00 -8 0 Calma 3 Sudoeste 0 -- -- 86
2021-01-06 02:00:00 -7.5 0 Calma 4 Oeste 0 -- -- 84
2021-01-06 01:00:00 -6.6 0 Calma 5 Sudoeste 0 -- -- 81
2021-01-06 00:00:00 -5.9 0 Calma 6 Sur 0 -- -- 79
2021-01-05 23:00:00 -5.1 0 Calma 4 Sudoeste 0 -- -- 78
2021-01-05 22:00:00 -4.2 2 Sudoeste 6 Sudoeste 0 -- -- 76
2021-01-05 21:00:00 -3.7 0 Calma 5 Sur 0 -- -- 74
2021-01-05 20:00:00 -2.2 0 Calma 5 Sudoeste 0 -- -- 69
2021-01-05 19:00:00 -1 0 Calma 7 Oeste 0 -- -- 62
2021-01-05 18:00:00 2 3 Oeste 11 Oeste 0 -- -- 51
2021-01-05 17:00:00 5.5 6 Oeste 15 Noroeste 0 -- -- 40
2021-01-05 16:00:00 7.2 5 Noroeste 13 Noroeste 0 -- -- 38
2021-01-05 15:00:00 7.2 5 Norte 14 Oeste 0 -- -- 40
2021-01-05 14:00:00 6.8 5 Noroeste 18 Noroeste 0 -- -- 47
2021-01-05 13:00:00 5.6 8 Noroeste 19 Noroeste 0 -- -- 50
2021-01-05 12:00:00 3.3 6 Noroeste 16 Oeste 0 -- -- 69
2021-01-05 11:00:00 0.5 5 Oeste 17 Oeste 0 -- -- 84
2021-01-05 10:00:00 -2.1 4 Oeste 14 Noroeste 0 -- -- 93
2021-01-05 09:00:00 -3.7 0 Calma 8 Oeste 0 -- -- 93
2021-01-05 08:00:00 -3.7 0 Calma 8 Sudeste 0 -- -- 91
2021-01-05 07:00:00 -2.7 0 Calma 12 Oeste 0 -- -- 90
2021-01-05 06:00:00 -1.9 2 Sudeste 18 Noroeste 0 -- -- 89
2021-01-05 05:00:00 -1.6 3 Oeste 17 Oeste 0 -- -- 88
2021-01-05 04:00:00 -0.6 10 Oeste 22 Noroeste 0 -- -- 87
2021-01-05 03:00:00 -0.6 6 Oeste 14 Sudoeste 0 -- -- 90
2021-01-05 02:00:00 -0.4 6 Oeste 17 Oeste 0 -- -- 87
2021-01-05 01:00:00 -0.7 5 Oeste 14 Oeste 0 -- -- 90
2021-01-05 00:00:00 -0.9 4 Oeste 10 Oeste 0 -- -- 90
2021-01-04 23:00:00 -1.1 3 Oeste 12 Oeste 0 -- -- 89
2021-01-04 22:00:00 -2.2 4 Oeste 10 Oeste 0 -- -- 88
2021-01-04 21:00:00 -0.2 4 Oeste 12 Sudoeste 0 -- -- 88
2021-01-04 20:00:00 0.2 4 Oeste 14 Oeste 0 -- -- 87
2021-01-04 19:00:00 1.1 0 Calma 15 Oeste 0 -- -- 81
2021-01-04 18:00:00 2.4 8 Oeste 29 Oeste 0 -- -- 79
2021-01-04 17:00:00 3.4 12 Oeste 26 Oeste 0 -- -- 74
2021-01-04 16:00:00 4.9 12 Oeste 32 Oeste 0 -- -- 64
2021-01-04 15:00:00 6.1 13 Oeste 34 Oeste 0 -- -- 60
2021-01-04 14:00:00 5.6 13 Oeste 35 Noroeste 0 -- -- 62
2021-01-04 13:00:00 4.8 12 Oeste 30 Oeste 0 -- -- 65
2021-01-04 12:00:00 4.2 9 Oeste 27 Oeste 0 -- -- 67
2021-01-04 11:00:00 3 10 Oeste 26 Noroeste 0 -- -- 73
2021-01-04 10:00:00 2.3 11 Oeste 27 Noroeste 0 -- -- 75
2021-01-04 09:00:00 0.6 6 Oeste 18 Oeste 0 -- -- 81
2021-01-04 08:00:00 0.2 7 Oeste 27 Oeste 0 -- -- 82
2021-01-04 07:00:00 0.4 12 Oeste 27 Oeste 0 -- -- 82
2021-01-04 06:00:00 0.8 8 Oeste 27 Oeste 0 -- -- 79
2021-01-04 05:00:00 0.8 12 Oeste 25 Oeste 0 -- -- 79
2021-01-04 04:00:00 0.3 11 Oeste 24 Noroeste 0 -- -- 78
2021-01-04 03:00:00 0.5 10 Oeste 22 Oeste 0 -- -- 76
2021-01-04 02:00:00 1.4 10 Oeste 27 Oeste 0 -- -- 73
2021-01-04 01:00:00 1.3 13 Oeste 33 Oeste 0 -- -- 71
2021-01-04 00:00:00 0.9 15 Oeste 35 Oeste 0 -- -- 70
2021-01-03 23:00:00 1.2 16 Oeste 31 Oeste 0 -- -- 65
2021-01-03 22:00:00 1.4 13 Oeste 27 Oeste 0 -- -- 62
2021-01-03 21:00:00 1.7 11 Oeste 27 Oeste 0 -- -- 62
2021-01-03 20:00:00 2.8 11 Oeste 30 Oeste 0 -- -- 56
2021-01-03 19:00:00 2.3 8 Oeste 31 Oeste 0 -- -- 63
2021-01-03 18:00:00 3.1 10 Oeste 26 Oeste 0 -- -- 63
2021-01-03 17:00:00 4.6 13 Noroeste 37 Oeste 0 -- -- 54
2021-01-03 16:00:00 5.9 18 Noroeste 35 Oeste 0 -- -- 51
2021-01-03 15:00:00 6.3 15 Noroeste 41 Oeste 0 -- -- 47
2021-01-03 14:00:00 6 13 Noroeste 42 Noroeste 0 -- -- 49
2021-01-03 13:00:00 5.4 10 Noroeste 40 Oeste 0 -- -- 51
2021-01-03 12:00:00 4 14 Noroeste 35 Noroeste 0 -- -- 53
2021-01-03 11:00:00 2.1 10 Noroeste 38 Oeste 0 -- -- 60
2021-01-03 10:00:00 0.3 12 Oeste 27 Oeste 0 -- -- 66
2021-01-03 09:00:00 -0.6 8 Noroeste 34 Norte 0 -- -- 71
2021-01-03 08:00:00 -1.1 9 Noroeste 30 Noroeste 0 -- -- 72
2021-01-03 07:00:00 -1.3 9 Noroeste 39 Noroeste 0 -- -- 70
2021-01-03 06:00:00 -1.5 8 Noroeste 32 Noroeste 0 -- -- 68
2021-01-03 05:00:00 -1.1 8 Noroeste 27 Noroeste 0 -- -- 66
2021-01-03 04:00:00 -1 8 Noroeste 30 Oeste 0 -- -- 68
2021-01-03 03:00:00 -0.6 12 Oeste 30 Noroeste 0 -- -- 68
2021-01-03 02:00:00 0.1 11 Noroeste 31 Noroeste 0 -- -- 64
2021-01-03 01:00:00 0.4 12 Noroeste 41 Oeste 0 -- -- 64
2021-01-03 00:00:00 0.6 12 Noroeste 38 Oeste 0 -- -- 67
2021-01-02 23:00:00 1 12 Noroeste 37 Noroeste 0 -- -- 64
2021-01-02 22:00:00 0.9 11 Noroeste 39 Noroeste 0 -- -- 68
2021-01-02 21:00:00 1.3 9 Noroeste 31 Noroeste 0 -- -- 67
2021-01-02 20:00:00 1.8 14 Noroeste 37 Oeste 0 -- -- 60
2021-01-02 19:00:00 2.2 11 Noroeste 36 Oeste 0 -- -- 61
2021-01-02 18:00:00 2.6 10 Noroeste 36 Oeste 0 -- -- 61
2021-01-02 17:00:00 3.3 17 Oeste 37 Norte 0 -- -- 59
2021-01-02 16:00:00 3.8 16 Noroeste 51 Noroeste 0 -- -- 58
2021-01-02 15:00:00 4.6 18 Noroeste 46 Oeste 0 -- -- 55
2021-01-02 14:00:00 4.3 16 Noroeste 45 Oeste 0 -- -- 58